sensor_id;sensor_type;location;lat;lon;timestamp;temperature;humidity
75022;SHT31;63583;49.976;20.182;2024-02-26T00:00:03;8.47;76.58
75022;SHT31;63583;49.976;20.182;2024-02-26T00:02:31;8.46;76.62
75022;SHT31;63583;49.976;20.182;2024-02-26T00:04:59;8.40;76.69
75022;SHT31;63583;49.976;20.182;2024-02-26T00:07:24;8.39;76.66
75022;SHT31;63583;49.976;20.182;2024-02-26T00:09:50;8.37;76.77
75022;SHT31;63583;49.976;20.182;2024-02-26T00:12:16;8.36;76.80
75022;SHT31;63583;49.976;20.182;2024-02-26T00:14:42;8.32;76.99
75022;SHT31;63583;49.976;20.182;2024-02-26T00:17:07;8.32;76.94
75022;SHT31;63583;49.976;20.182;2024-02-26T00:19:35;8.33;76.99
75022;SHT31;63583;49.976;20.182;2024-02-26T00:22:00;8.30;76.96
75022;SHT31;63583;49.976;20.182;2024-02-26T00:24:27;8.37;76.74
75022;SHT31;63583;49.976;20.182;2024-02-26T00:26:52;8.40;76.63
75022;SHT31;63583;49.976;20.182;2024-02-26T00:29:19;8.37;76.78
75022;SHT31;63583;49.976;20.182;2024-02-26T00:31:45;8.46;76.71
75022;SHT31;63583;49.976;20.182;2024-02-26T00:34:11;8.46;76.60
75022;SHT31;63583;49.976;20.182;2024-02-26T00:36:37;8.43;76.45
75022;SHT31;63583;49.976;20.182;2024-02-26T00:39:03;8.43;76.49
75022;SHT31;63583;49.976;20.182;2024-02-26T00:41:29;8.42;76.99
75022;SHT31;63583;49.976;20.182;2024-02-26T00:43:55;8.42;76.98
75022;SHT31;63583;49.976;20.182;2024-02-26T00:46:21;8.42;77.30
75022;SHT31;63583;49.976;20.182;2024-02-26T00:48:47;8.39;77.33
75022;SHT31;63583;49.976;20.182;2024-02-26T00:51:13;8.46;77.11
75022;SHT31;63583;49.976;20.182;2024-02-26T00:53:38;8.42;77.10
75022;SHT31;63583;49.976;20.182;2024-02-26T00:56:04;8.43;77.29
75022;SHT31;63583;49.976;20.182;2024-02-26T00:58:30;8.37;77.81
75022;SHT31;63583;49.976;20.182;2024-02-26T01:00:56;8.39;77.70
75022;SHT31;63583;49.976;20.182;2024-02-26T01:03:22;8.33;77.88
75022;SHT31;63583;49.976;20.182;2024-02-26T01:05:48;8.36;77.70
75022;SHT31;63583;49.976;20.182;2024-02-26T01:08:13;8.39;77.73
75022;SHT31;63583;49.976;20.182;2024-02-26T01:10:39;8.44;77.74
75022;SHT31;63583;49.976;20.182;2024-02-26T01:13:05;8.44;77.76
75022;SHT31;63583;49.976;20.182;2024-02-26T01:15:33;8.44;77.61
75022;SHT31;63583;49.976;20.182;2024-02-26T01:17:58;8.43;77.58
75022;SHT31;63583;49.976;20.182;2024-02-26T01:20:24;8.47;77.37
75022;SHT31;63583;49.976;20.182;2024-02-26T01:22:50;8.39;77.39
75022;SHT31;63583;49.976;20.182;2024-02-26T01:25:16;8.40;77.38
75022;SHT31;63583;49.976;20.182;2024-02-26T01:27:42;8.28;77.66
75022;SHT31;63583;49.976;20.182;2024-02-26T01:30:09;8.12;78.07
75022;SHT31;63583;49.976;20.182;2024-02-26T01:32:35;8.03;78.69
75022;SHT31;63583;49.976;20.182;2024-02-26T01:35:02;7.95;79.11
75022;SHT31;63583;49.976;20.182;2024-02-26T01:37:29;7.89;79.25
75022;SHT31;63583;49.976;20.182;2024-02-26T01:39:57;7.85;79.48
75022;SHT31;63583;49.976;20.182;2024-02-26T01:42:23;7.84;79.56
75022;SHT31;63583;49.976;20.182;2024-02-26T01:44:49;7.77;79.54
75022;SHT31;63583;49.976;20.182;2024-02-26T01:47:15;7.73;79.48
75022;SHT31;63583;49.976;20.182;2024-02-26T01:49:41;7.68;79.59
75022;SHT31;63583;49.976;20.182;2024-02-26T01:52:08;7.64;79.60
75022;SHT31;63583;49.976;20.182;2024-02-26T01:54:36;7.61;79.62
75022;SHT31;63583;49.976;20.182;2024-02-26T01:57:03;7.57;79.61
75022;SHT31;63583;49.976;20.182;2024-02-26T01:59:30;7.56;79.75
75022;SHT31;63583;49.976;20.182;2024-02-26T02:01:59;7.54;79.63
75022;SHT31;63583;49.976;20.182;2024-02-26T02:04:27;7.51;79.74
75022;SHT31;63583;49.976;20.182;2024-02-26T02:06:54;7.53;79.86
75022;SHT31;63583;49.976;20.182;2024-02-26T02:09:19;7.58;79.89
75022;SHT31;63583;49.976;20.182;2024-02-26T02:11:46;7.51;79.86
75022;SHT31;63583;49.976;20.182;2024-02-26T02:14:14;7.47;79.95
75022;SHT31;63583;49.976;20.182;2024-02-26T02:16:40;7.47;80.02
75022;SHT31;63583;49.976;20.182;2024-02-26T02:19:06;7.47;79.93
75022;SHT31;63583;49.976;20.182;2024-02-26T02:21:32;7.56;79.78
75022;SHT31;63583;49.976;20.182;2024-02-26T02:23:57;7.54;79.44
75022;SHT31;63583;49.976;20.182;2024-02-26T02:26:23;7.51;79.47
75022;SHT31;63583;49.976;20.182;2024-02-26T02:28:49;7.54;79.32
75022;SHT31;63583;49.976;20.182;2024-02-26T02:31:15;7.44;79.49
75022;SHT31;63583;49.976;20.182;2024-02-26T02:33:41;7.43;79.99
75022;SHT31;63583;49.976;20.182;2024-02-26T02:36:08;7.40;80.10
75022;SHT31;63583;49.976;20.182;2024-02-26T02:38:44;7.36;80.28
75022;SHT31;63583;49.976;20.182;2024-02-26T02:41:13;7.30;80.67
75022;SHT31;63583;49.976;20.182;2024-02-26T02:43:39;7.22;80.56
75022;SHT31;63583;49.976;20.182;2024-02-26T02:46:05;7.13;80.62
75022;SHT31;63583;49.976;20.182;2024-02-26T02:48:30;7.05;80.90
75022;SHT31;63583;49.976;20.182;2024-02-26T02:50:56;6.99;81.16
75022;SHT31;63583;49.976;20.182;2024-02-26T02:53:22;6.96;81.30
75022;SHT31;63583;49.976;20.182;2024-02-26T02:55:48;6.92;81.62
75022;SHT31;63583;49.976;20.182;2024-02-26T02:58:14;6.87;82.01
75022;SHT31;63583;49.976;20.182;2024-02-26T03:00:40;6.77;82.22
75022;SHT31;63583;49.976;20.182;2024-02-26T03:03:05;6.71;82.33
75022;SHT31;63583;49.976;20.182;2024-02-26T03:05:31;6.72;82.40
75022;SHT31;63583;49.976;20.182;2024-02-26T03:07:57;6.81;82.20
75022;SHT31;63583;49.976;20.182;2024-02-26T03:10:23;6.74;82.36
75022;SHT31;63583;49.976;20.182;2024-02-26T03:12:50;6.79;81.94
75022;SHT31;63583;49.976;20.182;2024-02-26T03:15:16;6.70;82.04
75022;SHT31;63583;49.976;20.182;2024-02-26T03:17:41;6.67;82.35
75022;SHT31;63583;49.976;20.182;2024-02-26T03:20:08;6.52;82.37
75022;SHT31;63583;49.976;20.182;2024-02-26T03:22:35;6.44;82.53
75022;SHT31;63583;49.976;20.182;2024-02-26T03:25:01;6.41;82.53
75022;SHT31;63583;49.976;20.182;2024-02-26T03:27:27;6.54;81.91
75022;SHT31;63583;49.976;20.182;2024-02-26T03:29:53;6.54;81.69
75022;SHT31;63583;49.976;20.182;2024-02-26T03:32:18;6.54;81.41
75022;SHT31;63583;49.976;20.182;2024-02-26T03:34:44;6.55;81.35
75022;SHT31;63583;49.976;20.182;2024-02-26T03:37:10;6.58;81.32
75022;SHT31;63583;49.976;20.182;2024-02-26T03:39:36;6.60;81.44
75022;SHT31;63583;49.976;20.182;2024-02-26T03:42:03;6.55;81.57
75022;SHT31;63583;49.976;20.182;2024-02-26T03:44:29;6.63;81.56
75022;SHT31;63583;49.976;20.182;2024-02-26T03:46:55;6.68;81.10
75022;SHT31;63583;49.976;20.182;2024-02-26T03:49:21;6.78;80.58
75022;SHT31;63583;49.976;20.182;2024-02-26T03:51:48;6.84;80.34
75022;SHT31;63583;49.976;20.182;2024-02-26T03:54:14;6.71;80.63
75022;SHT31;63583;49.976;20.182;2024-02-26T03:56:40;6.61;81.26
75022;SHT31;63583;49.976;20.182;2024-02-26T03:59:05;6.52;81.55
75022;SHT31;63583;49.976;20.182;2024-02-26T04:01:31;6.41;82.26
75022;SHT31;63583;49.976;20.182;2024-02-26T04:03:57;6.42;82.58
75022;SHT31;63583;49.976;20.182;2024-02-26T04:06:23;6.47;82.59
75022;SHT31;63583;49.976;20.182;2024-02-26T04:08:49;6.50;82.76
75022;SHT31;63583;49.976;20.182;2024-02-26T04:11:14;6.42;83.10
75022;SHT31;63583;49.976;20.182;2024-02-26T04:13:44;6.33;83.57
75022;SHT31;63583;49.976;20.182;2024-02-26T04:16:15;6.10;84.22
75022;SHT31;63583;49.976;20.182;2024-02-26T04:18:42;6.07;84.55
75022;SHT31;63583;49.976;20.182;2024-02-26T04:21:08;6.03;84.49
75022;SHT31;63583;49.976;20.182;2024-02-26T04:23:34;5.96;84.74
75022;SHT31;63583;49.976;20.182;2024-02-26T04:25:59;6.01;84.68
75022;SHT31;63583;49.976;20.182;2024-02-26T04:28:25;6.03;84.40
75022;SHT31;63583;49.976;20.182;2024-02-26T04:30:55;6.05;83.97
75022;SHT31;63583;49.976;20.182;2024-02-26T04:33:21;6.10;83.60
75022;SHT31;63583;49.976;20.182;2024-02-26T04:35:46;6.13;83.37
75022;SHT31;63583;49.976;20.182;2024-02-26T04:38:12;6.09;83.56
75022;SHT31;63583;49.976;20.182;2024-02-26T04:40:38;5.98;83.94
75022;SHT31;63583;49.976;20.182;2024-02-26T04:43:04;5.85;84.34
75022;SHT31;63583;49.976;20.182;2024-02-26T04:45:29;5.75;84.62
75022;SHT31;63583;49.976;20.182;2024-02-26T04:47:55;5.65;85.07
75022;SHT31;63583;49.976;20.182;2024-02-26T04:50:21;5.64;85.10
75022;SHT31;63583;49.976;20.182;2024-02-26T04:52:47;5.66;85.56
75022;SHT31;63583;49.976;20.182;2024-02-26T04:55:13;5.66;85.21
75022;SHT31;63583;49.976;20.182;2024-02-26T04:57:39;5.68;85.24
75022;SHT31;63583;49.976;20.182;2024-02-26T05:00:05;5.71;84.84
75022;SHT31;63583;49.976;20.182;2024-02-26T05:02:31;5.64;84.96
75022;SHT31;63583;49.976;20.182;2024-02-26T05:04:59;5.56;85.11
75022;SHT31;63583;49.976;20.182;2024-02-26T05:07:25;5.54;85.17
75022;SHT31;63583;49.976;20.182;2024-02-26T05:09:50;5.54;85.34
75022;SHT31;63583;49.976;20.182;2024-02-26T05:12:16;5.62;85.12
75022;SHT31;63583;49.976;20.182;2024-02-26T05:14:42;5.65;84.86
75022;SHT31;63583;49.976;20.182;2024-02-26T05:17:08;5.61;84.98
75022;SHT31;63583;49.976;20.182;2024-02-26T05:19:34;5.61;85.11
75022;SHT31;63583;49.976;20.182;2024-02-26T05:22:00;5.54;85.32
75022;SHT31;63583;49.976;20.182;2024-02-26T05:24:25;5.54;85.51
75022;SHT31;63583;49.976;20.182;2024-02-26T05:26:53;5.59;85.34
75022;SHT31;63583;49.976;20.182;2024-02-26T05:29:19;5.51;85.52
75022;SHT31;63583;49.976;20.182;2024-02-26T05:31:45;5.55;85.43
75022;SHT31;63583;49.976;20.182;2024-02-26T05:34:11;5.59;85.53
75022;SHT31;63583;49.976;20.182;2024-02-26T05:36:37;5.64;85.39
75022;SHT31;63583;49.976;20.182;2024-02-26T05:39:04;5.64;85.35
75022;SHT31;63583;49.976;20.182;2024-02-26T05:41:30;5.61;85.46
75022;SHT31;63583;49.976;20.182;2024-02-26T05:43:55;5.55;85.84
75022;SHT31;63583;49.976;20.182;2024-02-26T05:46:22;5.50;85.95
75022;SHT31;63583;49.976;20.182;2024-02-26T05:48:51;5.50;85.84
75022;SHT31;63583;49.976;20.182;2024-02-26T05:51:17;5.58;85.56
75022;SHT31;63583;49.976;20.182;2024-02-26T05:53:43;5.55;86.03
75022;SHT31;63583;49.976;20.182;2024-02-26T05:56:09;5.55;86.09
75022;SHT31;63583;49.976;20.182;2024-02-26T05:58:35;5.55;86.27
75022;SHT31;63583;49.976;20.182;2024-02-26T06:01:00;5.51;86.53
75022;SHT31;63583;49.976;20.182;2024-02-26T06:03:26;5.62;85.49
75022;SHT31;63583;49.976;20.182;2024-02-26T06:05:52;5.50;85.71
75022;SHT31;63583;49.976;20.182;2024-02-26T06:08:18;5.40;86.23
75022;SHT31;63583;49.976;20.182;2024-02-26T06:10:44;5.34;87.28
75022;SHT31;63583;49.976;20.182;2024-02-26T06:13:10;5.43;87.49
75022;SHT31;63583;49.976;20.182;2024-02-26T06:15:36;5.74;87.46
75022;SHT31;63583;49.976;20.182;2024-02-26T06:18:02;5.96;86.87
75022;SHT31;63583;49.976;20.182;2024-02-26T06:20:28;6.10;86.54
75022;SHT31;63583;49.976;20.182;2024-02-26T06:22:54;6.23;86.25
75022;SHT31;63583;49.976;20.182;2024-02-26T06:25:20;6.33;86.16
75022;SHT31;63583;49.976;20.182;2024-02-26T06:27:45;6.40;86.05
75022;SHT31;63583;49.976;20.182;2024-02-26T06:30:12;6.47;84.92
75022;SHT31;63583;49.976;20.182;2024-02-26T06:32:37;6.31;84.87
75022;SHT31;63583;49.976;20.182;2024-02-26T06:35:04;6.24;84.96
75022;SHT31;63583;49.976;20.182;2024-02-26T06:37:34;6.27;84.85
75022;SHT31;63583;49.976;20.182;2024-02-26T06:40:01;6.24;84.83
75022;SHT31;63583;49.976;20.182;2024-02-26T06:42:29;6.19;85.83
75022;SHT31;63583;49.976;20.182;2024-02-26T06:44:56;6.22;85.71
75022;SHT31;63583;49.976;20.182;2024-02-26T06:47:22;6.37;84.98
75022;SHT31;63583;49.976;20.182;2024-02-26T06:49:48;6.48;84.41
75022;SHT31;63583;49.976;20.182;2024-02-26T06:52:13;6.55;84.38
75022;SHT31;63583;49.976;20.182;2024-02-26T06:54:39;6.84;84.09
75022;SHT31;63583;49.976;20.182;2024-02-26T06:57:05;7.24;83.21
75022;SHT31;63583;49.976;20.182;2024-02-26T06:59:31;7.61;81.80
75022;SHT31;63583;49.976;20.182;2024-02-26T07:01:57;7.88;81.36
75022;SHT31;63583;49.976;20.182;2024-02-26T07:04:23;8.05;81.28
75022;SHT31;63583;49.976;20.182;2024-02-26T07:06:48;8.28;81.26
75022;SHT31;63583;49.976;20.182;2024-02-26T07:09:14;8.34;81.22
75022;SHT31;63583;49.976;20.182;2024-02-26T07:11:41;8.40;82.04
75022;SHT31;63583;49.976;20.182;2024-02-26T07:14:12;8.23;82.24
75022;SHT31;63583;49.976;20.182;2024-02-26T07:16:37;8.21;81.86
75022;SHT31;63583;49.976;20.182;2024-02-26T07:19:04;8.13;81.86
75022;SHT31;63583;49.976;20.182;2024-02-26T07:21:29;8.12;82.61
75022;SHT31;63583;49.976;20.182;2024-02-26T07:23:56;8.30;81.29
75022;SHT31;63583;49.976;20.182;2024-02-26T07:26:21;8.42;81.36
75022;SHT31;63583;49.976;20.182;2024-02-26T07:28:50;8.43;81.75
75022;SHT31;63583;49.976;20.182;2024-02-26T07:31:17;8.53;81.93
75022;SHT31;63583;49.976;20.182;2024-02-26T07:33:43;8.56;81.62
75022;SHT31;63583;49.976;20.182;2024-02-26T07:36:10;8.67;81.96
75022;SHT31;63583;49.976;20.182;2024-02-26T07:38:36;8.75;82.25
75022;SHT31;63583;49.976;20.182;2024-02-26T07:41:02;8.93;80.44
75022;SHT31;63583;49.976;20.182;2024-02-26T07:43:29;9.18;80.54
75022;SHT31;63583;49.976;20.182;2024-02-26T07:45:54;9.40;80.18
75022;SHT31;63583;49.976;20.182;2024-02-26T07:48:20;9.73;80.22
75022;SHT31;63583;49.976;20.182;2024-02-26T07:50:46;9.86;79.28
75022;SHT31;63583;49.976;20.182;2024-02-26T07:53:13;9.97;79.26
75022;SHT31;63583;49.976;20.182;2024-02-26T07:55:39;10.22;78.94
75022;SHT31;63583;49.976;20.182;2024-02-26T07:58:05;10.33;79.07
75022;SHT31;63583;49.976;20.182;2024-02-26T08:00:30;10.52;78.12
75022;SHT31;63583;49.976;20.182;2024-02-26T08:02:56;10.84;77.41
75022;SHT31;63583;49.976;20.182;2024-02-26T08:05:22;11.10;75.90
75022;SHT31;63583;49.976;20.182;2024-02-26T08:07:48;11.28;75.47
75022;SHT31;63583;49.976;20.182;2024-02-26T08:10:14;11.51;74.88
75022;SHT31;63583;49.976;20.182;2024-02-26T08:12:40;11.69;75.42
75022;SHT31;63583;49.976;20.182;2024-02-26T08:15:07;11.69;74.53
75022;SHT31;63583;49.976;20.182;2024-02-26T08:17:33;11.86;74.81
75022;SHT31;63583;49.976;20.182;2024-02-26T08:20:00;11.75;74.15
75022;SHT31;63583;49.976;20.182;2024-02-26T08:22:28;11.69;73.85
75022;SHT31;63583;49.976;20.182;2024-02-26T08:24:54;11.54;74.09
75022;SHT31;63583;49.976;20.182;2024-02-26T08:27:20;11.63;74.16
75022;SHT31;63583;49.976;20.182;2024-02-26T08:29:45;11.35;75.16
75022;SHT31;63583;49.976;20.182;2024-02-26T08:32:11;11.32;75.58
75022;SHT31;63583;49.976;20.182;2024-02-26T08:34:37;11.21;76.09
75022;SHT31;63583;49.976;20.182;2024-02-26T08:37:03;11.07;77.23
75022;SHT31;63583;49.976;20.182;2024-02-26T08:39:29;11.06;77.53
75022;SHT31;63583;49.976;20.182;2024-02-26T08:41:56;11.07;77.04
75022;SHT31;63583;49.976;20.182;2024-02-26T08:44:22;11.04;76.90
75022;SHT31;63583;49.976;20.182;2024-02-26T08:46:48;11.27;76.61
75022;SHT31;63583;49.976;20.182;2024-02-26T08:49:14;11.46;75.70
75022;SHT31;63583;49.976;20.182;2024-02-26T08:51:44;11.73;75.16
75022;SHT31;63583;49.976;20.182;2024-02-26T08:54:10;12.00;73.62
75022;SHT31;63583;49.976;20.182;2024-02-26T08:56:37;12.03;73.04
75022;SHT31;63583;49.976;20.182;2024-02-26T08:59:03;12.14;72.38
75022;SHT31;63583;49.976;20.182;2024-02-26T09:01:31;12.17;71.20
75022;SHT31;63583;49.976;20.182;2024-02-26T09:03:57;12.12;72.66
75022;SHT31;63583;49.976;20.182;2024-02-26T09:06:23;12.34;72.48
75022;SHT31;63583;49.976;20.182;2024-02-26T09:08:49;12.04;72.03
75022;SHT31;63583;49.976;20.182;2024-02-26T09:11:15;12.06;72.88
75022;SHT31;63583;49.976;20.182;2024-02-26T09:13:41;12.04;72.96
75022;SHT31;63583;49.976;20.182;2024-02-26T09:16:08;12.04;72.39
75022;SHT31;63583;49.976;20.182;2024-02-26T09:18:33;11.89;72.74
75022;SHT31;63583;49.976;20.182;2024-02-26T09:20:59;11.61;74.39
75022;SHT31;63583;49.976;20.182;2024-02-26T09:23:25;11.72;73.93
75022;SHT31;63583;49.976;20.182;2024-02-26T09:25:51;11.86;74.32
75022;SHT31;63583;49.976;20.182;2024-02-26T09:28:17;11.82;74.85
75022;SHT31;63583;49.976;20.182;2024-02-26T09:30:43;11.91;74.20
75022;SHT31;63583;49.976;20.182;2024-02-26T09:33:09;11.75;74.55
75022;SHT31;63583;49.976;20.182;2024-02-26T09:35:35;11.87;74.24
75022;SHT31;63583;49.976;20.182;2024-02-26T09:38:01;11.91;72.99
75022;SHT31;63583;49.976;20.182;2024-02-26T09:40:27;12.35;74.01
75022;SHT31;63583;49.976;20.182;2024-02-26T09:42:59;12.75;71.93
75022;SHT31;63583;49.976;20.182;2024-02-26T09:45:25;13.14;71.40
75022;SHT31;63583;49.976;20.182;2024-02-26T09:47:55;13.40;70.97
75022;SHT31;63583;49.976;20.182;2024-02-26T09:50:22;13.33;70.28
75022;SHT31;63583;49.976;20.182;2024-02-26T09:52:51;13.51;69.74
75022;SHT31;63583;49.976;20.182;2024-02-26T09:55:18;13.44;70.69
75022;SHT31;63583;49.976;20.182;2024-02-26T09:57:46;13.55;69.94
75022;SHT31;63583;49.976;20.182;2024-02-26T10:00:18;13.40;70.95
75022;SHT31;63583;49.976;20.182;2024-02-26T10:02:47;13.40;71.50
75022;SHT31;63583;49.976;20.182;2024-02-26T10:05:17;13.37;71.64
75022;SHT31;63583;49.976;20.182;2024-02-26T10:07:45;13.31;71.94
75022;SHT31;63583;49.976;20.182;2024-02-26T10:10:13;13.47;72.59
75022;SHT31;63583;49.976;20.182;2024-02-26T10:12:39;13.38;72.05
75022;SHT31;63583;49.976;20.182;2024-02-26T10:15:05;13.34;72.12
75022;SHT31;63583;49.976;20.182;2024-02-26T10:17:31;13.51;72.58
75022;SHT31;63583;49.976;20.182;2024-02-26T10:20:17;13.53;70.84
75022;SHT31;63583;49.976;20.182;2024-02-26T10:22:44;13.50;70.74
75022;SHT31;63583;49.976;20.182;2024-02-26T10:25:10;13.50;71.07
75022;SHT31;63583;49.976;20.182;2024-02-26T10:27:36;13.53;70.39
75022;SHT31;63583;49.976;20.182;2024-02-26T10:30:19;13.58;69.65
75022;SHT31;63583;49.976;20.182;2024-02-26T10:32:47;13.59;70.03
75022;SHT31;63583;49.976;20.182;2024-02-26T10:35:14;13.57;71.29
75022;SHT31;63583;49.976;20.182;2024-02-26T10:37:41;13.46;71.87
75022;SHT31;63583;49.976;20.182;2024-02-26T10:40:16;13.61;71.00
75022;SHT31;63583;49.976;20.182;2024-02-26T10:42:42;13.71;70.54
75022;SHT31;63583;49.976;20.182;2024-02-26T10:45:09;14.02;70.79
75022;SHT31;63583;49.976;20.182;2024-02-26T10:47:35;14.30;69.59
75022;SHT31;63583;49.976;20.182;2024-02-26T10:50:03;14.57;69.86
75022;SHT31;63583;49.976;20.182;2024-02-26T10:52:34;14.63;68.80
75022;SHT31;63583;49.976;20.182;2024-02-26T10:55:04;14.99;68.48
75022;SHT31;63583;49.976;20.182;2024-02-26T10:57:37;15.25;66.93
75022;SHT31;63583;49.976;20.182;2024-02-26T11:00:06;15.36;66.33
75022;SHT31;63583;49.976;20.182;2024-02-26T11:02:35;15.73;65.06
75022;SHT31;63583;49.976;20.182;2024-02-26T11:05:03;15.84;65.44
75022;SHT31;63583;49.976;20.182;2024-02-26T11:07:32;15.87;64.96
75022;SHT31;63583;49.976;20.182;2024-02-26T11:10:02;15.77;64.38
75022;SHT31;63583;49.976;20.182;2024-02-26T11:12:30;16.01;63.90
75022;SHT31;63583;49.976;20.182;2024-02-26T11:14:57;15.98;64.47
75022;SHT31;63583;49.976;20.182;2024-02-26T11:17:27;16.15;64.00
75022;SHT31;63583;49.976;20.182;2024-02-26T11:19:58;15.80;64.48
75022;SHT31;63583;49.976;20.182;2024-02-26T11:22:25;15.88;65.12
75022;SHT31;63583;49.976;20.182;2024-02-26T11:24:56;16.00;65.07
75022;SHT31;63583;49.976;20.182;2024-02-26T11:27:47;15.81;66.09
75022;SHT31;63583;49.976;20.182;2024-02-26T11:30:15;15.76;64.34
75022;SHT31;63583;49.976;20.182;2024-02-26T11:32:48;15.50;64.39
75022;SHT31;63583;49.976;20.182;2024-02-26T11:35:15;15.12;65.25
75022;SHT31;63583;49.976;20.182;2024-02-26T11:37:52;15.09;65.25
75022;SHT31;63583;49.976;20.182;2024-02-26T11:40:18;15.20;66.11
75022;SHT31;63583;49.976;20.182;2024-02-26T11:42:45;15.32;66.54
75022;SHT31;63583;49.976;20.182;2024-02-26T11:48:11;15.59;65.59
75022;SHT31;63583;49.976;20.182;2024-02-26T11:51:14;15.83;65.00
75022;SHT31;63583;49.976;20.182;2024-02-26T11:53:46;16.21;65.40
75022;SHT31;63583;49.976;20.182;2024-02-26T11:58:42;16.43;62.99
75022;SHT31;63583;49.976;20.182;2024-02-26T12:01:46;16.69;61.77
75022;SHT31;63583;49.976;20.182;2024-02-26T12:04:21;16.79;62.03
75022;SHT31;63583;49.976;20.182;2024-02-26T12:06:51;16.48;61.77
75022;SHT31;63583;49.976;20.182;2024-02-26T12:09:32;16.45;62.98
75022;SHT31;63583;49.976;20.182;2024-02-26T12:12:00;16.32;63.97
75022;SHT31;63583;49.976;20.182;2024-02-26T12:14:26;15.97;64.34
75022;SHT31;63583;49.976;20.182;2024-02-26T12:16:53;16.28;63.09
75022;SHT31;63583;49.976;20.182;2024-02-26T12:19:21;16.48;63.38
75022;SHT31;63583;49.976;20.182;2024-02-26T12:21:51;16.51;64.73
75022;SHT31;63583;49.976;20.182;2024-02-26T12:24:19;16.52;62.38
75022;SHT31;63583;49.976;20.182;2024-02-26T12:26:45;16.45;63.28
75022;SHT31;63583;49.976;20.182;2024-02-26T12:29:12;16.32;64.44
75022;SHT31;63583;49.976;20.182;2024-02-26T12:31:39;16.36;63.58
75022;SHT31;63583;49.976;20.182;2024-02-26T12:34:06;16.09;64.27
75022;SHT31;63583;49.976;20.182;2024-02-26T12:36:33;16.43;63.50
75022;SHT31;63583;49.976;20.182;2024-02-26T12:39:01;16.11;64.72
75022;SHT31;63583;49.976;20.182;2024-02-26T12:41:28;16.24;64.81
75022;SHT31;63583;49.976;20.182;2024-02-26T12:43:55;15.84;64.38
75022;SHT31;63583;49.976;20.182;2024-02-26T12:46:22;15.88;65.21
75022;SHT31;63583;49.976;20.182;2024-02-26T12:48:48;16.06;64.59
75022;SHT31;63583;49.976;20.182;2024-02-26T12:51:16;16.11;64.87
75022;SHT31;63583;49.976;20.182;2024-02-26T12:53:42;16.14;64.83
75022;SHT31;63583;49.976;20.182;2024-02-26T12:56:10;16.19;65.06
75022;SHT31;63583;49.976;20.182;2024-02-26T12:58:38;16.26;65.37
75022;SHT31;63583;49.976;20.182;2024-02-26T13:01:05;16.26;64.06
75022;SHT31;63583;49.976;20.182;2024-02-26T13:03:33;16.15;64.47
75022;SHT31;63583;49.976;20.182;2024-02-26T13:06:00;16.09;65.20
75022;SHT31;63583;49.976;20.182;2024-02-26T13:08:27;15.93;66.22
75022;SHT31;63583;49.976;20.182;2024-02-26T13:10:53;16.04;65.21
75022;SHT31;63583;49.976;20.182;2024-02-26T13:13:19;15.87;65.40
75022;SHT31;63583;49.976;20.182;2024-02-26T13:15:45;15.77;66.10
75022;SHT31;63583;49.976;20.182;2024-02-26T13:18:13;15.71;65.31
75022;SHT31;63583;49.976;20.182;2024-02-26T13:20:40;15.71;65.18
75022;SHT31;63583;49.976;20.182;2024-02-26T13:23:11;15.32;66.30
75022;SHT31;63583;49.976;20.182;2024-02-26T13:25:38;15.05;67.19
75022;SHT31;63583;49.976;20.182;2024-02-26T13:28:17;15.13;66.72
75022;SHT31;63583;49.976;20.182;2024-02-26T13:30:51;14.91;67.37
75022;SHT31;63583;49.976;20.182;2024-02-26T13:33:19;14.77;68.91
75022;SHT31;63583;49.976;20.182;2024-02-26T13:35:45;14.92;68.54
75022;SHT31;63583;49.976;20.182;2024-02-26T13:38:10;14.84;67.82
75022;SHT31;63583;49.976;20.182;2024-02-26T13:40:37;14.93;68.07
75022;SHT31;63583;49.976;20.182;2024-02-26T13:43:04;14.98;68.22
75022;SHT31;63583;49.976;20.182;2024-02-26T13:45:34;15.05;68.14
75022;SHT31;63583;49.976;20.182;2024-02-26T13:48:02;15.11;67.95
75022;SHT31;63583;49.976;20.182;2024-02-26T13:50:29;14.87;68.52
75022;SHT31;63583;49.976;20.182;2024-02-26T13:52:54;14.96;67.91
75022;SHT31;63583;49.976;20.182;2024-02-26T13:55:22;14.99;67.96
75022;SHT31;63583;49.976;20.182;2024-02-26T13:57:49;14.91;67.89
75022;SHT31;63583;49.976;20.182;2024-02-26T14:00:17;14.71;68.86
75022;SHT31;63583;49.976;20.182;2024-02-26T14:02:43;14.87;68.77
75022;SHT31;63583;49.976;20.182;2024-02-26T14:05:09;14.63;69.10
75022;SHT31;63583;49.976;20.182;2024-02-26T14:07:35;14.72;69.57
75022;SHT31;63583;49.976;20.182;2024-02-26T14:10:01;14.70;69.16
75022;SHT31;63583;49.976;20.182;2024-02-26T14:12:27;14.71;69.27
75022;SHT31;63583;49.976;20.182;2024-02-26T14:14:53;14.37;70.54
75022;SHT31;63583;49.976;20.182;2024-02-26T14:17:24;14.56;69.67
75022;SHT31;63583;49.976;20.182;2024-02-26T14:19:50;14.64;69.64
75022;SHT31;63583;49.976;20.182;2024-02-26T14:22:15;14.61;69.41
75022;SHT31;63583;49.976;20.182;2024-02-26T14:24:42;14.47;69.85
75022;SHT31;63583;49.976;20.182;2024-02-26T14:27:09;14.40;69.63
75022;SHT31;63583;49.976;20.182;2024-02-26T14:29:36;14.22;70.70
75022;SHT31;63583;49.976;20.182;2024-02-26T14:32:03;14.33;70.42
75022;SHT31;63583;49.976;20.182;2024-02-26T14:34:29;14.24;70.58
75022;SHT31;63583;49.976;20.182;2024-02-26T14:36:55;14.34;70.55
75022;SHT31;63583;49.976;20.182;2024-02-26T14:39:21;14.17;70.83
75022;SHT31;63583;49.976;20.182;2024-02-26T14:41:47;14.04;70.79
75022;SHT31;63583;49.976;20.182;2024-02-26T14:44:13;14.06;71.04
75022;SHT31;63583;49.976;20.182;2024-02-26T14:46:38;14.01;71.21
75022;SHT31;63583;49.976;20.182;2024-02-26T14:49:04;13.81;71.80
75022;SHT31;63583;49.976;20.182;2024-02-26T14:51:30;13.74;72.24
75022;SHT31;63583;49.976;20.182;2024-02-26T14:53:56;13.67;72.44
75022;SHT31;63583;49.976;20.182;2024-02-26T14:56:24;13.69;72.81
75022;SHT31;63583;49.976;20.182;2024-02-26T14:58:50;13.74;72.98
75022;SHT31;63583;49.976;20.182;2024-02-26T15:01:16;13.62;72.96
75022;SHT31;63583;49.976;20.182;2024-02-26T15:03:42;13.62;72.91
75022;SHT31;63583;49.976;20.182;2024-02-26T15:06:07;13.61;72.95
75022;SHT31;63583;49.976;20.182;2024-02-26T15:08:33;13.67;72.58
75022;SHT31;63583;49.976;20.182;2024-02-26T15:11:01;13.54;72.86
75022;SHT31;63583;49.976;20.182;2024-02-26T15:13:27;13.48;73.25
75022;SHT31;63583;49.976;20.182;2024-02-26T15:15:52;13.51;73.17
75022;SHT31;63583;49.976;20.182;2024-02-26T15:18:18;13.50;73.12
75022;SHT31;63583;49.976;20.182;2024-02-26T15:20:44;13.75;71.97
75022;SHT31;63583;49.976;20.182;2024-02-26T15:23:11;13.59;72.65
75022;SHT31;63583;49.976;20.182;2024-02-26T15:25:38;13.67;72.41